Time;durP1;ratioP1;P1;durP2;ratioP2;P2;SDS_P1;SDS_P2;PMS_P1;PMS_P2;Temp;Humidity;BMP_temperature;BMP_pressure;BME280_temperature;BME280_humidity;BME280_pressure;Samples;Min_cycle;Max_cycle;Signal;HPM_P1;HPM_P2
2022/12/13 00:02:17;;;;;;;27.50;9.65;;;;;;;5.32;100.00;100358.48;1762672;80;20873;-82
2022/12/13 00:04:43;;;;;;;28.90;9.98;;;;;;;5.39;100.00;100363.21;1769426;80;20959;-82
2022/12/13 00:07:09;;;;;;;27.65;10.05;;;;;;;5.41;100.00;100365.11;1760613;80;21035;-82
2022/12/13 00:09:35;;;;;;;30.30;10.50;;;;;;;5.43;100.00;100368.38;1765226;80;21762;-82
2022/12/13 00:12:01;;;;;;;30.97;10.75;;;;;;;5.41;100.00;100365.95;1762565;80;20908;-82
2022/12/13 00:14:27;;;;;;;27.13;9.63;;;;;;;5.39;100.00;100371.22;1764438;80;20965;-82
2022/12/13 00:16:52;;;;;;;36.35;10.58;;;;;;;5.35;100.00;100367.37;1762096;80;20880;-82
2022/12/13 00:19:19;;;;;;;30.45;10.82;;;;;;;5.35;100.00;100366.03;1768922;80;21346;-82
2022/12/13 00:21:45;;;;;;;31.90;10.90;;;;;;;5.33;100.00;100367.62;1760009;80;21784;-82
2022/12/13 00:24:11;;;;;;;34.88;11.33;;;;;;;5.35;100.00;100363.36;1773397;80;20988;-81
2022/12/13 00:26:37;;;;;;;24.90;9.68;;;;;;;5.38;100.00;100373.59;1755545;80;21026;-82
2022/12/13 00:29:06;;;;;;;32.73;10.95;;;;;;;5.39;100.00;100373.37;1761348;80;21664;-82
2022/12/13 00:31:33;;;;;;;28.38;9.93;;;;;;;5.44;100.00;100370.83;1759474;80;21058;-82
2022/12/13 00:34:00;;;;;;;30.62;10.78;;;;;;;5.44;100.00;100370.83;1754889;80;23011;-82
2022/12/13 00:36:26;;;;;;;32.00;9.95;;;;;;;5.41;100.00;100382.48;1750349;80;20940;-82
2022/12/13 00:39:01;;;;;;;33.23;10.13;;;;;;;5.39;100.00;100374.70;1752601;80;20941;-82
2022/12/13 00:41:33;;;;;;;33.65;10.95;;;;;;;5.40;100.00;100372.31;1766518;80;21484;-82
2022/12/13 00:44:01;;;;;;;33.60;10.55;;;;;;;5.42;100.00;100372.09;1759973;80;21003;-82
2022/12/13 00:46:28;;;;;;;29.40;11.38;;;;;;;5.34;100.00;100387.94;1760691;80;21825;-82
2022/12/13 00:48:58;;;;;;;32.30;10.68;;;;;;;5.31;100.00;100387.59;1762306;80;21071;-82
2022/12/13 00:51:25;;;;;;;32.25;10.85;;;;;;;5.30;100.00;100376.62;1765199;80;21006;-82
2022/12/13 00:53:52;;;;;;;32.17;11.28;;;;;;;5.30;100.00;100383.30;1754461;80;21054;-82
2022/12/13 00:56:22;;;;;;;33.18;11.95;;;;;;;5.30;100.00;100380.09;1767849;80;20999;-82
2022/12/13 00:58:49;;;;;;;37.35;12.18;;;;;;;5.31;100.00;100380.91;1741438;81;21881;-82
2022/12/13 01:01:17;;;;;;;34.03;11.33;;;;;;;5.29;100.00;100380.31;1758750;81;20985;-82
2022/12/13 01:03:43;;;;;;;33.75;11.88;;;;;;;5.27;100.00;100385.91;1773368;80;21020;-82
2022/12/13 01:06:24;;;;;;;32.23;11.22;;;;;;;5.27;100.00;100387.77;1750748;80;21423;-82
2022/12/13 01:08:50;;;;;;;36.15;11.50;;;;;;;5.29;100.00;100386.47;1769913;80;21042;-82
2022/12/13 01:11:17;;;;;;;32.08;11.55;;;;;;;5.26;100.00;100394.94;1755997;80;22390;-82
2022/12/13 01:13:44;;;;;;;33.10;11.50;;;;;;;5.20;100.00;100400.67;1778901;80;20972;-82
2022/12/13 01:16:12;;;;;;;34.92;12.45;;;;;;;5.19;100.00;100387.56;1744595;80;21073;-82
2022/12/13 01:18:39;;;;;;;35.75;12.53;;;;;;;5.17;100.00;100381.10;1763376;80;20989;-82
2022/12/13 01:21:11;;;;;;;37.70;12.50;;;;;;;5.11;100.00;100390.56;1768932;80;21031;-82
2022/12/13 01:23:38;;;;;;;35.10;12.15;;;;;;;5.12;100.00;100401.56;1637466;86;21625;-82
2022/12/13 01:26:11;;;;;;;33.20;11.45;;;;;;;5.18;100.00;100392.63;1638179;86;21002;-82
2022/12/13 01:28:38;;;;;;;39.40;12.63;;;;;;;5.15;100.00;100389.08;1635015;86;21404;-82
2022/12/13 01:31:08;;;;;;;34.03;12.10;;;;;;;5.09;100.00;100394.81;1624908;87;21026;-81
2022/12/13 01:33:35;;;;;;;33.23;11.80;;;;;;;5.05;100.00;100397.63;1632135;86;21023;-81
2022/12/13 01:36:05;;;;;;;35.15;11.18;;;;;;;5.05;100.00;100400.30;1645898;86;21791;-82
2022/12/13 01:38:31;;;;;;;35.13;11.70;;;;;;;5.09;100.00;100397.48;1584469;89;21491;-83
2022/12/13 01:40:58;;;;;;;38.17;13.00;;;;;;;5.15;100.00;100406.44;1583866;89;21157;-82
2022/12/13 01:43:45;;;;;;;33.25;12.33;;;;;;;5.14;100.00;100403.45;1598646;88;21045;-82
2022/12/13 01:46:14;;;;;;;33.02;11.95;;;;;;;5.15;100.00;100404.58;1592287;89;20985;-82
2022/12/13 01:48:54;;;;;;;37.38;12.47;;;;;;;5.15;100.00;100411.78;1586071;88;21819;-82
2022/12/13 01:51:26;;;;;;;31.27;11.38;;;;;;;5.20;100.00;100406.02;1575698;89;21022;-82
2022/12/13 01:53:55;;;;;;;35.52;11.25;;;;;;;5.26;100.00;100408.30;1579781;89;21074;-83
2022/12/13 01:56:26;;;;;;;37.08;12.47;;;;;;;5.21;100.00;100408.19;1589111;89;20949;-82
2022/12/13 01:58:54;;;;;;;30.12;10.90;;;;;;;5.22;100.00;100415.96;1514563;94;21059;-82
2022/12/13 02:01:21;;;;;;;32.98;11.50;;;;;;;5.23;100.00;100410.09;1510739;94;21814;-82
2022/12/13 02:03:47;;;;;;;37.50;12.88;;;;;;;5.21;100.00;100408.19;1513612;94;21048;-82
2022/12/13 02:09:58;;;;;;;29.35;10.88;;;;;;;5.18;100.00;100405.45;1512180;94;21621;-82
2022/12/13 02:12:30;;;;;;;34.43;12.15;;;;;;;5.21;100.00;100403.66;1510618;93;21053;-82
2022/12/13 02:15:03;;;;;;;28.45;11.08;;;;;;;5.20;100.00;100410.03;1540222;91;21911;-81
2022/12/13 02:17:39;;;;;;;;;;;;;;;5.27;100.00;100401.12;1550323;91;21572;-82
2022/12/13 02:20:28;;;;;;;29.12;10.68;;;;;;;5.27;100.00;100403.27;1547289;91;20147;-82
2022/12/13 02:23:14;;;;;;;34.48;11.68;;;;;;;5.29;100.00;100406.50;1545895;91;21128;-82
2022/12/13 02:26:00;;;;;;;34.15;12.03;;;;;;;5.31;100.00;100398.27;1542788;91;21549;-81
2022/12/13 02:28:47;;;;;;;35.88;12.75;;;;;;;5.34;100.00;100394.61;1508146;93;21900;-82
2022/12/13 02:31:24;;;;;;;32.10;11.40;;;;;;;5.24;100.00;100394.38;1510007;93;21306;-81
2022/12/13 02:34:07;;;;;;;34.00;11.38;;;;;;;5.23;100.00;100385.55;1506290;93;21226;-81
2022/12/13 02:37:04;;;;;;;30.30;11.63;;;;;;;5.16;100.00;100380.82;1550912;91;21099;-82
2022/12/13 02:39:38;;;;;;;31.95;11.90;;;;;;;5.14;100.00;100378.08;1550490;90;21082;-82
2022/12/13 02:42:30;;;;;;;35.68;11.83;;;;;;;5.04;100.00;100385.33;1549218;91;21902;-82
2022/12/13 02:45:10;;;;;;;30.90;11.50;;;;;;;5.05;100.00;100383.47;1556062;90;21033;-82
2022/12/13 02:47:42;;;;;;;31.95;11.40;;;;;;;5.08;100.00;100387.02;1552784;91;21508;-82
2022/12/13 02:50:11;;;;;;;36.58;13.00;;;;;;;5.05;100.00;100388.80;1552613;90;21078;-82
2022/12/13 02:52:41;;;;;;;35.28;11.78;;;;;;;4.95;100.00;100390.17;1553696;91;21621;-81
2022/12/13 02:55:12;;;;;;;41.83;11.88;;;;;;;4.97;100.00;100390.77;1576707;84;21853;-82
2022/12/13 02:57:42;;;;;;;36.25;12.63;;;;;;;5.04;100.00;100391.19;1683725;84;21012;-82
2022/12/13 03:00:14;;;;;;;33.65;12.10;;;;;;;5.14;100.00;100386.09;1686128;84;21075;-82
2022/12/13 03:02:57;;;;;;;35.33;11.83;;;;;;;5.15;100.00;100385.08;1686411;84;20984;-82
2022/12/13 03:08:32;;;;;;;36.08;12.10;;;;;;;5.14;100.00;100398.11;1686924;84;20147;-81
2022/12/13 03:11:17;;;;;;;34.13;12.45;;;;;;;5.18;100.00;100403.31;1682709;84;21449;-82
2022/12/13 03:13:56;;;;;;;37.95;12.50;;;;;;;5.12;100.00;100401.03;1680232;84;21040;-82
2022/12/13 03:16:42;;;;;;;32.35;11.00;;;;;;;4.96;100.00;100394.98;1666141;85;21082;-82
2022/12/13 03:19:11;;;;;;;38.67;13.45;;;;;;;4.97;100.00;100401.95;1682027;84;21094;-82
2022/12/13 03:21:45;;;;;;;34.98;12.63;;;;;;;4.97;100.00;100409.47;1685403;84;21739;-82
2022/12/13 03:24:12;;;;;;;38.13;12.98;;;;;;;4.99;100.00;100411.36;1631537;86;20974;-82
2022/12/13 03:26:39;;;;;;;42.40;12.47;;;;;;;4.99;100.00;100409.22;1647402;86;21502;-82
2022/12/13 03:29:06;;;;;;;41.80;12.63;;;;;;;4.95;100.00;100407.53;1647635;86;21119;-82
2022/12/13 03:31:32;;;;;;;38.10;12.45;;;;;;;4.94;100.00;100409.08;1642689;85;21129;-82
2022/12/13 03:33:58;;;;;;;40.75;13.50;;;;;;;4.95;100.00;100404.86;1630221;86;22678;-82
2022/12/13 03:36:25;;;;;;;44.48;13.83;;;;;;;4.92;100.00;100414.66;1649248;85;21100;-82
2022/12/13 03:38:53;;;;;;;38.92;13.05;;;;;;;4.94;100.00;100423.27;1653360;86;20990;-82
2022/12/13 03:41:23;;;;;;;40.78;13.20;;;;;;;4.89;100.00;100416.98;1649456;86;20949;-82
2022/12/13 03:43:50;;;;;;;41.55;13.58;;;;;;;4.88;100.00;100412.66;1618883;87;21005;-82
2022/12/13 03:46:16;;;;;;;38.80;12.80;;;;;;;4.88;100.00;100410.83;1609637;87;21911;-82
2022/12/13 03:48:42;;;;;;;41.13;14.05;;;;;;;4.91;100.00;100406.86;1609246;87;21014;-82
2022/12/13 03:51:08;;;;;;;42.40;13.48;;;;;;;4.81;100.00;100383.91;1615520;87;21051;-82
2022/12/13 03:53:34;;;;;;;44.45;13.60;;;;;;;4.89;100.00;100400.95;1621195;87;20922;-82
2022/12/13 03:56:03;;;;;;;46.95;14.20;;;;;;;4.80;100.00;100384.45;1627673;86;21468;-82
2022/12/13 03:58:30;;;;;;;45.00;13.65;;;;;;;4.76;100.00;100394.77;1620557;87;21861;-81
2022/12/13 04:04:37;;;;;;;50.00;15.28;;;;;;;4.73;100.00;100403.72;1629610;87;22075;-82
2022/12/13 04:07:03;;;;;;;56.45;16.73;;;;;;;4.74;100.00;100396.03;1611820;87;20939;-81
2022/12/13 04:09:32;;;;;;;56.70;17.20;;;;;;;4.73;100.00;100391.19;1617876;87;20967;-82
2022/12/13 04:14:42;;;;;;;62.95;17.95;;;;;;;4.59;100.00;100388.42;1624686;87;21015;-82
2022/12/13 04:17:08;;;;;;;63.70;17.90;;;;;;;4.49;100.00;100396.13;1616093;87;21010;-82
2022/12/13 04:19:34;;;;;;;61.98;17.55;;;;;;;4.40;100.00;100396.95;1621113;87;20991;-82
2022/12/13 04:22:00;;;;;;;60.23;17.20;;;;;;;4.44;100.00;100391.98;1675807;84;20971;-82
2022/12/13 04:24:25;;;;;;;56.02;17.37;;;;;;;4.42;100.00;100390.08;1681596;85;21854;-82
2022/12/13 04:26:52;;;;;;;58.68;17.35;;;;;;;4.36;100.00;100381.64;1671868;84;20909;-82
2022/12/13 04:29:20;;;;;;;55.20;15.90;;;;;;;4.35;100.00;100363.98;1638380;86;21019;-82
2022/12/13 04:31:46;;;;;;;69.27;17.52;;;;;;;4.26;100.00;100364.80;1677501;84;20978;-82
2022/12/13 04:34:15;;;;;;;50.88;16.95;;;;;;;4.22;100.00;100373.78;1663583;84;21042;-82
2022/12/13 04:36:41;;;;;;;56.58;17.67;;;;;;;4.25;100.00;100360.00;1660663;85;21693;-82
2022/12/13 04:39:07;;;;;;;58.17;17.20;;;;;;;4.22;100.00;100343.11;1677286;84;21245;-81
2022/12/13 04:41:38;;;;;;;56.73;17.02;;;;;;;4.17;100.00;100346.15;1746188;80;20924;-82
2022/12/13 04:44:06;;;;;;;55.55;16.77;;;;;;;4.18;100.00;100352.61;1774428;80;21397;-82
2022/12/13 04:46:33;;;;;;;59.35;16.75;;;;;;;4.16;100.00;100348.53;1768552;80;20995;-82
2022/12/13 04:48:59;;;;;;;58.48;16.95;;;;;;;4.14;100.00;100347.41;1756683;80;21982;-82
2022/12/13 04:51:25;;;;;;;55.58;16.32;;;;;;;4.17;100.00;100351.48;1772253;80;21030;-82
2022/12/13 04:53:51;;;;;;;52.00;16.45;;;;;;;4.13;100.00;100351.12;1771554;80;21030;-83
2022/12/13 04:56:18;;;;;;;51.85;16.65;;;;;;;4.13;100.00;100351.12;1749211;80;21018;-82
2022/12/13 04:58:44;;;;;;;53.42;16.82;;;;;;;4.12;100.00;100349.99;1751937;80;21042;-81
2022/12/13 05:01:11;;;;;;;60.20;17.70;;;;;;;4.11;100.00;100343.86;1748513;80;21758;-82
2022/12/13 05:03:38;;;;;;;57.20;16.75;;;;;;;4.09;100.00;100340.09;1776921;80;21019;-82
2022/12/13 05:06:11;;;;;;;58.35;17.87;;;;;;;4.32;100.00;100337.23;1772862;80;21032;-82
2022/12/13 05:08:37;;;;;;;61.55;18.82;;;;;;;4.51;100.00;100340.70;1733296;81;21737;-82
2022/12/13 05:11:08;;;;;;;64.17;20.23;;;;;;;4.65;100.00;100330.14;1733907;81;21046;-83
2022/12/13 05:13:35;;;;;;;73.62;20.25;;;;;;;4.83;100.00;100328.45;1731162;81;21819;-82
2022/12/13 05:16:05;;;;;;;59.40;19.90;;;;;;;4.96;100.00;100317.03;1731698;81;21089;-82
2022/12/13 05:18:33;;;;;;;68.35;20.97;;;;;;;5.06;100.00;100312.48;1725783;82;21634;-83
2022/12/13 05:21:06;;;;;;;69.90;21.55;;;;;;;5.05;100.00;100318.03;1730674;82;20988;-82
2022/12/13 05:27:00;;;;;;;69.95;19.98;;;;;;;5.21;100.00;100328.05;1741697;82;22209;-82
2022/12/13 05:33:07;;;;;;;73.05;20.70;;;;;;;5.39;100.00;100318.59;1732256;82;21086;-83
2022/12/13 05:35:33;;;;;;;69.50;21.25;;;;;;;5.37;100.00;100307.84;1724714;82;21071;-83
2022/12/13 05:37:59;;;;;;;70.87;19.82;;;;;;;5.35;100.00;100302.72;1715351;82;21792;-82
2022/12/13 05:40:29;;;;;;;71.65;20.95;;;;;;;5.35;100.00;100300.05;1724370;82;21767;-83
2022/12/13 05:46:36;;;;;;;71.67;20.57;;;;;;;5.42;100.00;100302.09;1732638;82;21040;-82
2022/12/13 05:49:02;;;;;;;61.00;18.98;;;;;;;5.43;100.00;100293.55;1734647;82;21096;-83
2022/12/13 05:51:28;;;;;;;57.60;18.67;;;;;;;5.34;100.00;100290.41;1724978;81;20916;-83
2022/12/13 05:53:54;;;;;;;59.65;18.87;;;;;;;5.35;100.00;100292.55;1727924;81;21792;-83
2022/12/13 05:56:19;;;;;;;67.82;19.73;;;;;;;5.41;100.00;100278.27;1730910;81;20897;-83
2022/12/13 05:58:45;;;;;;;64.32;18.48;;;;;;;5.37;100.00;100282.45;1734459;82;20888;-83
2022/12/13 06:01:16;;;;;;;77.40;21.00;;;;;;;5.45;100.00;100287.45;1729951;81;20997;-83
2022/12/13 06:03:42;;;;;;;56.15;18.25;;;;;;;5.50;100.00;100280.06;1732189;81;21621;-83
2022/12/13 06:06:11;;;;;;;54.98;17.17;;;;;;;5.50;100.00;100283.57;1749036;80;21830;-83
2022/12/13 06:14:45;;;;;;;67.40;20.85;;;;;;;5.31;100.00;100271.37;1669709;85;21079;-82
2022/12/13 06:17:11;;;;;;;63.35;19.07;;;;;;;5.34;100.00;100281.06;1664656;84;21010;-83
2022/12/13 06:19:37;;;;;;;60.50;18.30;;;;;;;5.38;100.00;100288.92;1660632;85;21754;-83
2022/12/13 06:22:04;;;;;;;63.90;19.20;;;;;;;5.42;100.00;100293.27;1665097;85;21004;-83
2022/12/13 06:24:30;;;;;;;57.88;18.60;;;;;;;5.46;100.00;100309.11;1661584;85;21096;-83
2022/12/13 06:26:57;;;;;;;56.88;18.55;;;;;;;5.46;100.00;100307.78;1670408;85;20913;-83
2022/12/13 06:29:23;;;;;;;63.10;17.75;;;;;;;5.51;100.00;100305.75;1677396;85;21030;-83
2022/12/13 06:31:56;;;;;;;66.57;20.05;;;;;;;5.57;100.00;100302.95;1674103;85;22437;-83
2022/12/13 06:34:23;;;;;;;86.42;22.35;;;;;;;5.55;100.00;100312.25;1658802;85;29076;-84
2022/12/13 06:36:49;;;;;;;67.27;20.80;;;;;;;5.51;100.00;100305.75;1636066;84;21015;-83
2022/12/13 06:39:16;;;;;;;74.72;20.02;;;;;;;5.54;100.00;100308.77;1654889;84;21015;-84
2022/12/13 06:41:42;;;;;;;88.33;21.35;;;;;;;5.44;100.00;100302.69;1625842;86;21175;-83
2022/12/13 06:44:08;;;;;;;88.10;22.15;;;;;;;5.31;100.00;100300.23;1650965;84;21877;-82
2022/12/13 06:46:35;;;;;;;84.65;21.60;;;;;;;5.24;100.00;100306.22;1651786;86;21013;-83
2022/12/13 06:49:01;;;;;;;77.45;20.32;;;;;;;5.17;100.00;100300.16;1650453;86;21515;-83
2022/12/13 06:51:27;;;;;;;81.10;21.27;;;;;;;5.06;100.00;100307.63;1648280;85;21081;-83
2022/12/13 06:53:53;;;;;;;91.80;21.30;;;;;;;4.94;100.00;100304.45;1644316;86;21097;-83
2022/12/13 06:56:19;;;;;;;87.80;19.70;;;;;;;4.91;100.00;100294.73;1656345;85;22386;-84
2022/12/13 06:58:46;;;;;;;93.47;20.70;;;;;;;4.82;100.00;100291.58;1649687;85;20955;-82
2022/12/13 07:01:16;;;;;;;94.87;20.52;;;;;;;4.76;100.00;100306.68;1642843;85;21051;-82
2022/12/13 07:03:42;;;;;;;96.75;20.12;;;;;;;4.72;100.00;100310.83;1635456;87;21113;-82
2022/12/13 07:06:15;;;;;;;102.00;20.85;;;;;;;4.64;100.00;100320.48;1649342;86;21412;-82
2022/12/13 07:08:45;;;;;;;88.80;22.60;;;;;;;4.67;100.00;100324.03;1648532;86;27295;-82
2022/12/13 07:11:18;;;;;;;93.05;22.15;;;;;;;4.72;100.00;100334.84;1670452;83;21113;-82
2022/12/13 07:13:44;;;;;;;84.62;18.50;;;;;;;4.78;100.00;100333.13;1727903;82;21006;-82
2022/12/13 07:16:12;;;;;;;74.70;20.32;;;;;;;4.77;100.00;100329.65;1719362;82;21006;-82
2022/12/13 07:18:38;;;;;;;100.80;22.27;;;;;;;4.80;100.00;100322.23;1711956;83;21096;-83
2022/12/13 07:21:07;;;;;;;84.05;21.02;;;;;;;4.87;100.00;100322.41;1717561;82;21884;-83
2022/12/13 07:27:14;;;;;;;73.30;19.40;;;;;;;4.89;100.00;100316.33;1716799;82;21015;-83
2022/12/13 07:29:40;;;;;;;71.75;18.60;;;;;;;4.84;100.00;100312.72;1713399;82;21102;-83
2022/12/13 07:32:06;;;;;;;60.73;16.42;;;;;;;4.88;100.00;100306.70;1776824;80;20995;-83
2022/12/13 07:34:32;;;;;;;56.80;15.35;;;;;;;4.91;100.00;100303.58;1762129;80;22335;-83
2022/12/13 07:36:58;;;;;;;65.45;17.40;;;;;;;4.98;100.00;100298.13;1770245;80;21465;-83
2022/12/13 07:39:25;;;;;;;59.80;16.50;;;;;;;4.87;100.00;100291.70;1748959;80;21000;-83
2022/12/13 07:41:54;;;;;;;64.62;17.05;;;;;;;4.83;100.00;100289.22;1753515;80;20973;-84
2022/12/13 07:44:20;;;;;;;58.08;16.25;;;;;;;4.92;100.00;100288.36;1766951;80;21016;-83
2022/12/13 07:46:46;;;;;;;48.85;14.47;;;;;;;4.96;100.00;100290.33;1758828;80;21932;-84
2022/12/13 07:52:52;;;;;;;63.33;16.52;;;;;;;4.99;100.00;100283.72;1772589;80;21368;-84
2022/12/13 07:55:20;;;;;;;63.20;16.40;;;;;;;5.13;100.00;100257.08;1779172;80;20852;-83
2022/12/13 07:57:46;;;;;;;57.58;15.65;;;;;;;5.13;100.00;100257.08;1763999;80;20965;-83
2022/12/13 08:00:13;;;;;;;56.58;16.20;;;;;;;5.24;100.00;100267.48;1776414;80;21956;-83
2022/12/13 08:02:40;;;;;;;75.90;18.48;;;;;;;5.29;100.00;100274.78;1764688;80;20980;-84
2022/12/13 08:05:07;;;;;;;74.00;18.00;;;;;;;5.48;100.00;100274.96;1751571;80;21066;-83
2022/12/13 08:07:33;;;;;;;63.52;16.23;;;;;;;5.55;100.00;100270.83;1764251;80;21001;-84
2022/12/13 08:09:59;;;;;;;61.23;16.50;;;;;;;5.69;100.00;100255.63;1777679;80;21678;-83
2022/12/13 08:12:25;;;;;;;60.35;15.13;;;;;;;5.76;100.00;100236.78;1749434;80;21719;-83
2022/12/13 08:14:51;;;;;;;72.05;17.07;;;;;;;5.75;100.00;100229.81;1719545;83;21020;-84
2022/12/13 08:17:18;;;;;;;49.50;16.20;;;;;;;5.74;100.00;100224.72;1697106;83;21078;-84
2022/12/13 08:23:25;;;;;;;44.08;14.95;;;;;;;5.81;100.00;100215.50;1721030;83;21013;-84
2022/12/13 08:29:45;;;;;;;44.40;13.10;;;;;;;5.79;100.00;100220.26;1721094;83;21001;-84
2022/12/13 08:32:12;;;;;;;41.85;13.05;;;;;;;5.77;100.00;100222.38;1721235;83;21110;-83
2022/12/13 08:34:40;;;;;;;47.78;13.98;;;;;;;5.70;100.00;100225.69;1721335;83;20968;-84
2022/12/13 08:37:06;;;;;;;41.85;12.82;;;;;;;5.63;100.00;100229.04;1720968;83;21125;-84
2022/12/13 08:39:35;;;;;;;37.80;11.95;;;;;;;5.73;100.00;100221.73;1745194;80;21771;-84
2022/12/13 08:42:04;;;;;;;36.80;11.95;;;;;;;5.61;100.00;100221.23;1779141;80;21039;-84
2022/12/13 08:44:30;;;;;;;46.28;12.80;;;;;;;5.50;100.00;100218.09;1756754;80;21021;-85
2022/12/13 08:46:56;;;;;;;46.92;13.62;;;;;;;5.54;100.00;100199.72;1765869;80;21023;-83
2022/12/13 08:49:23;;;;;;;40.73;12.88;;;;;;;5.47;100.00;100205.17;1758554;80;21384;-84
2022/12/13 08:51:49;;;;;;;38.48;13.18;;;;;;;5.44;100.00;100194.95;1756643;80;21714;-83
2022/12/13 08:54:14;;;;;;;40.03;12.95;;;;;;;5.46;100.00;100187.00;1772401;80;21097;-84
2022/12/13 08:56:40;;;;;;;36.45;12.40;;;;;;;5.51;100.00;100171.60;1765742;80;20861;-84
2022/12/13 08:59:07;;;;;;;36.65;12.18;;;;;;;5.51;100.00;100171.60;1759948;80;21092;-85
2022/12/13 09:01:33;;;;;;;39.65;12.95;;;;;;;5.55;100.00;100169.27;1761529;80;21459;-84
2022/12/13 09:03:59;;;;;;;37.33;12.35;;;;;;;5.54;100.00;100160.97;1758779;80;22003;-84
2022/12/13 09:06:25;;;;;;;38.40;13.45;;;;;;;5.51;100.00;100161.44;1752064;80;20968;-84
2022/12/13 09:16:18;;;;;;;39.48;13.13;;;;;;;5.62;100.00;100136.02;1766741;80;21137;-84
2022/12/13 09:18:45;;;;;;;33.55;12.43;;;;;;;5.60;100.00;100123.94;1754141;80;22697;-85
2022/12/13 09:21:14;;;;;;;36.77;12.50;;;;;;;5.61;100.00;100121.01;1756047;80;21486;-84
2022/12/13 09:23:41;;;;;;;37.15;12.88;;;;;;;5.62;100.00;100119.98;1769899;80;21070;-83
2022/12/13 09:26:10;;;;;;;41.68;12.73;;;;;;;5.56;100.00;100106.23;1761067;80;20996;-84
2022/12/13 09:28:38;;;;;;;36.15;13.65;;;;;;;5.58;100.00;100097.96;1768173;80;20991;-84
2022/12/13 09:31:10;;;;;;;36.20;12.93;;;;;;;5.65;100.00;100091.96;1765192;80;21843;-84
2022/12/13 09:33:37;;;;;;;37.03;11.83;;;;;;;5.61;100.00;100082.78;1734090;82;21463;-85
2022/12/13 09:36:06;;;;;;;39.27;13.43;;;;;;;5.66;100.00;100086.89;1736253;82;21506;-84
2022/12/13 09:42:01;;;;;;;34.60;11.65;;;;;;;5.69;100.00;100065.02;1720874;82;21064;-84
2022/12/13 09:44:33;;;;;;;31.10;11.18;;;;;;;5.60;100.00;100068.61;1737197;82;21753;-85
2022/12/13 09:47:02;;;;;;;37.58;12.40;;;;;;;5.63;100.00;100053.43;1546742;91;21078;-84
2022/12/13 09:49:39;;;;;;;35.63;12.98;;;;;;;5.64;100.00;100048.36;1532880;91;21088;-84
2022/12/13 09:52:10;;;;;;;38.98;12.37;;;;;;;5.59;100.00;100046.12;1481041;95;21558;-85
2022/12/13 09:54:38;;;;;;;32.05;11.18;;;;;;;5.65;100.00;100043.31;1490716;95;22235;-85
2022/12/13 09:57:10;;;;;;;32.30;12.05;;;;;;;5.63;100.00;100026.70;1490267;95;21907;-85
2022/12/13 09:59:36;;;;;;;34.73;11.57;;;;;;;5.58;100.00;100023.13;1470873;95;21615;-84
2022/12/13 10:09:23;;;;;;;35.60;11.83;;;;;;;5.42;100.00;100018.86;1490166;95;21070;-84
2022/12/13 10:11:52;;;;;;;35.80;12.65;;;;;;;5.42;100.00;100009.50;1490245;95;22592;-84
2022/12/13 10:14:33;;;;;;;33.78;12.55;;;;;;;5.48;100.00;100011.73;1490371;95;21097;-84
2022/12/13 10:17:03;;;;;;;32.58;11.97;;;;;;;5.53;100.00;100002.98;1464189;97;21023;-84
2022/12/13 10:19:45;;;;;;;30.55;10.98;;;;;;;5.54;100.00;99997.41;1460489;98;21029;-84
2022/12/13 10:22:15;;;;;;;39.98;12.68;;;;;;;5.57;100.00;99986.77;1461550;97;21665;-85
2022/12/13 10:25:02;;;;;;;29.48;11.48;;;;;;;5.56;100.00;99979.78;1464217;97;21918;-84
2022/12/13 10:27:42;;;;;;;36.55;12.15;;;;;;;5.59;100.00;99968.61;1396035;102;21098;-84
2022/12/13 10:30:15;;;;;;;40.55;13.38;;;;;;;5.61;100.00;99961.17;1379151;103;21069;-84
2022/12/13 10:32:55;;;;;;;43.92;13.40;;;;;;;5.61;100.00;99953.95;1390267;103;21645;-84
2022/12/13 10:35:35;;;;;;;38.30;14.10;;;;;;;5.67;100.00;99932.13;1389022;103;20994;-84
2022/12/13 10:38:09;;;;;;;32.63;11.68;;;;;;;5.68;100.00;99925.22;1386717;102;22261;-85
2022/12/13 10:40:39;;;;;;;40.73;14.45;;;;;;;5.66;100.00;99915.82;1381127;102;21557;-85
2022/12/13 10:43:26;;;;;;;44.13;14.75;;;;;;;5.61;100.00;99911.19;1399423;99;21084;-85
2022/12/13 10:46:00;;;;;;;40.60;13.98;;;;;;;5.69;100.00;99901.97;1430324;100;21101;-85
2022/12/13 10:48:40;;;;;;;;;;;;;;;5.74;100.00;99895.90;1441554;95;21151;-84
2022/12/13 10:51:10;;;;;;;40.73;14.73;;;;;;;5.67;100.00;99888.03;1525583;92;22137;-85
2022/12/13 10:53:46;;;;;;;41.15;13.98;;;;;;;5.61;100.00;99876.45;1554895;88;21006;-85
2022/12/13 10:56:13;;;;;;;47.23;14.68;;;;;;;5.63;100.00;99873.55;1566449;90;21098;-85
2022/12/13 10:58:43;;;;;;;45.85;15.53;;;;;;;5.59;100.00;99884.42;1561899;90;21531;-85
2022/12/13 11:01:22;;;;;;;44.05;14.05;;;;;;;5.60;100.00;99878.05;1576006;90;21138;-85
2022/12/13 11:03:59;;;;;;;44.27;15.15;;;;;;;5.64;100.00;99870.61;1568105;90;22735;-84
2022/12/13 11:06:27;;;;;;;51.63;15.75;;;;;;;5.63;100.00;99866.86;1558096;91;21629;-85
2022/12/13 11:09:17;;;;;;;47.83;15.28;;;;;;;5.62;100.00;99849.22;1568102;90;21074;-85
2022/12/13 11:11:44;;;;;;;52.20;17.10;;;;;;;5.65;100.00;99834.83;1563268;91;21071;-84
2022/12/13 11:14:20;;;;;;;45.35;15.70;;;;;;;5.68;100.00;99833.00;1559846;91;21079;-83
2022/12/13 11:16:55;;;;;;;50.10;16.02;;;;;;;5.73;100.00;99813.53;1561194;90;21817;-84
2022/12/13 11:19:27;;;;;;;46.05;16.02;;;;;;;5.75;100.00;99814.10;1517826;94;21060;-83
2022/12/13 11:21:54;;;;;;;46.13;15.15;;;;;;;5.78;100.00;99811.47;1502376;93;21492;-83
2022/12/13 11:24:25;;;;;;;46.40;16.60;;;;;;;5.76;100.00;99797.00;1522314;91;21159;-82
2022/12/13 11:27:05;;;;;;;54.30;17.35;;;;;;;5.79;100.00;99787.67;1533034;90;21106;-84
2022/12/13 11:29:37;;;;;;;49.03;17.07;;;;;;;5.79;100.00;99783.13;1493052;93;21844;-83
2022/12/13 11:32:23;;;;;;;46.58;16.90;;;;;;;5.80;100.00;99781.30;1446691;98;21125;-82
2022/12/13 11:35:01;;;;;;;52.67;15.75;;;;;;;5.76;100.00;99775.61;1446601;98;20967;-83
2022/12/13 11:37:55;;;;;;;44.80;15.15;;;;;;;5.77;100.00;99771.90;1461599;95;21052;-83
2022/12/13 11:40:31;;;;;;;49.03;16.27;;;;;;;5.56;100.00;99770.00;1476920;96;21557;-82
2022/12/13 11:43:21;;;;;;;42.80;14.85;;;;;;;5.84;100.00;99779.73;1474407;96;22734;-83
2022/12/13 11:45:53;;;;;;;44.27;14.83;;;;;;;5.87;100.00;99800.09;1475631;95;21532;-83
2022/12/13 11:48:43;;;;;;;44.93;14.38;;;;;;;5.76;100.00;99805.55;1467851;95;21065;-82
2022/12/13 11:51:12;;;;;;;41.83;14.07;;;;;;;5.69;100.00;99809.75;1446302;98;20983;-82
2022/12/13 11:54:00;;;;;;;37.67;12.88;;;;;;;5.73;100.00;99818.87;1459285;97;21023;-83
2022/12/13 11:56:30;;;;;;;34.78;11.88;;;;;;;5.90;100.00;99825.52;1465913;96;21869;-85
2022/12/13 11:59:28;;;;;;;37.30;13.18;;;;;;;5.99;100.00;99812.56;1452191;96;21192;-83
2022/12/13 12:02:14;;;;;;;37.17;12.68;;;;;;;5.96;100.00;99819.21;1445899;97;21047;-82
2022/12/13 12:04:48;;;;;;;35.28;12.65;;;;;;;5.97;100.00;99820.02;1440140;98;21674;-82
2022/12/13 12:07:25;;;;;;;31.15;11.33;;;;;;;5.94;100.00;99817.84;1445559;97;21056;-83
2022/12/13 12:10:32;;;;;;;34.10;11.03;;;;;;;5.88;100.00;99816.43;1479214;93;23176;-83
2022/12/13 12:13:03;;;;;;;36.60;11.88;;;;;;;5.82;100.00;99804.02;1504035;94;21074;-82
2022/12/13 12:15:37;;;;;;;31.87;12.03;;;;;;;5.69;100.00;99804.40;1484631;94;21102;-84
2022/12/13 12:18:03;;;;;;;32.10;10.88;;;;;;;5.50;100.00;99797.70;1497216;94;21013;-86
2022/12/13 12:20:37;;;;;;;29.05;10.82;;;;;;;5.42;100.00;99791.74;1495827;94;20959;-82
2022/12/13 12:23:12;;;;;;;31.75;11.88;;;;;;;5.32;100.00;99790.77;1540462;92;22087;-86
2022/12/13 12:25:58;;;;;;;36.13;11.30;;;;;;;5.16;100.00;99776.39;1583442;87;21038;-85
2022/12/13 12:28:54;;;;;;;35.08;12.37;;;;;;;5.04;100.00;99767.67;1564107;86;21028;-85
2022/12/13 12:31:44;;;;;;;35.70;12.80;;;;;;;4.81;100.00;99767.30;1576502;89;21036;-83